Etusivu
METAR-TAF:

METAR-TAF

Lentoasemat :

Tokat, Turkki

Leveyspiiri: 40-18N, Pituuspiiri: 036-34E, korkeus merenpinnasta: 608 m

METAR: puuttuu

Aika: 20:09 (17:09 UTC)

Sääennuste

Tämä raportti tehtiin 3 tuntia ja 29 minuuttia sitten, kello 13.40 UTC
Ennuste voimassa 22. päivästä klo 15 UTC - 22. päivään klo 24 UTC
Tuuli 9 kn idästä
Näkyvyys 10 km tai enemmän
Hajonneita pilviä 3300 ft:n korkeudessa
Hajonneita pilviä 8000 ft:n korkeudessa

TAF: LTAW 221340Z 2215/2224 09009KT 9999 BKN033 BKN080

Säähavainnot ja -ennusteet yli 4000 lentoasemalta (METAR- ja TAF-raportit).

Käytössä olevat sääasemat on merkitty karttaan keltaisilla ja punaisilla pisteillä.

Aseta hiiri pisteen päälle nähdäksesi sääaseman nimen.

Klikkaa sitten nähdäksesi säähavainnot ja -ennusteet.

Kartan vaihtaminen: klikkaa mustalla rastilla varustettuja vihreitä pisteitä, niin voit zoomata sisään; viivalla varustettua vihreää pistettä, niin voit zoomata ulos tai vihreitä nuolia, niin pääset viereisille kartoille.


METAR-TAF: